Time;durP1;ratioP1;P1;durP2;ratioP2;P2;SDS_P1;SDS_P2;PMS_P1;PMS_P2;Temp;Humidity;BMP_temperature;BMP_pressure;BME280_temperature;BME280_humidity;BME280_pressure;Samples;Min_cycle;Max_cycle;Signal;HPM_P1;HPM_P2
2023/04/23 00:00:48;;;;;;;8.43;6.80;;;;;;;10.57;100.00;101509.13;2079848;28;20938;-69
2023/04/23 00:01:51;;;;;;;9.90;7.40;;;;;;;10.60;100.00;101504.75;2080497;28;20179;-69
2023/04/23 00:02:53;;;;;;;8.27;6.90;;;;;;;10.57;100.00;101500.00;2082815;28;20476;-69
2023/04/23 00:03:57;;;;;;;9.37;6.33;;;;;;;9.85;100.00;101384.69;2082721;28;20443;-69
2023/04/23 00:05:03;;;;;;;10.60;6.43;;;;;;;10.63;100.00;101506.69;2083105;28;20446;-69
2023/04/23 00:06:06;;;;;;;9.07;6.80;;;;;;;10.63;100.00;101498.34;2076343;28;20464;-69
2023/04/23 00:07:07;;;;;;;8.50;6.93;;;;;;;10.51;100.00;101493.34;2081303;28;20799;-69
2023/04/23 00:08:09;;;;;;;9.63;7.33;;;;;;;10.63;100.00;101501.94;2083312;28;20440;-69
2023/04/23 00:09:13;;;;;;;8.43;6.87;;;;;;;10.67;100.00;101504.66;2083295;28;20439;-69
2023/04/23 00:10:14;;;;;;;12.30;6.73;;;;;;;10.23;100.00;101435.41;2082597;28;20443;-69
2023/04/23 00:11:14;;;;;;;8.70;6.17;;;;;;;10.76;100.00;101513.28;2083133;28;20469;-69
2023/04/23 00:12:15;;;;;;;7.87;6.47;;;;;;;10.77;100.00;101512.84;2082655;28;20216;-69
2023/04/23 00:13:16;;;;;;;8.17;6.30;;;;;;;10.79;100.00;101507.69;2083251;28;20642;-69
2023/04/23 00:14:16;;;;;;;7.43;5.53;;;;;;;10.83;100.00;101514.00;2083196;28;20188;-69
2023/04/23 00:15:19;;;;;;;8.57;5.47;;;;;;;10.84;100.00;101503.69;2082891;28;20199;-69
2023/04/23 00:16:20;;;;;;;7.77;5.80;;;;;;;10.85;100.00;101508.81;2083058;28;20571;-69
2023/04/23 00:17:20;;;;;;;7.63;5.20;;;;;;;10.85;100.00;101508.81;2083339;28;20526;-69
2023/04/23 00:18:21;;;;;;;9.83;6.13;;;;;;;10.83;100.00;101513.19;2082830;28;20214;-69
2023/04/23 00:19:21;;;;;;;9.43;5.90;;;;;;;10.22;100.00;101415.25;2083374;28;20618;-69
2023/04/23 00:20:21;;;;;;;10.57;5.80;;;;;;;10.80;100.00;101509.25;2082543;28;20229;-69
2023/04/23 00:21:22;;;;;;;7.33;5.27;;;;;;;10.79;100.00;101502.16;2083204;28;20256;-69
2023/04/23 00:22:22;;;;;;;6.17;5.50;;;;;;;9.61;100.00;101341.44;2083098;28;20581;-69
2023/04/23 00:23:23;;;;;;;9.83;6.23;;;;;;;10.00;100.00;101388.91;2082686;28;20676;-69
2023/04/23 00:24:23;;;;;;;9.87;5.90;;;;;;;10.76;100.00;101507.75;2082426;28;20200;-69
2023/04/23 00:25:24;;;;;;;9.03;5.77;;;;;;;10.77;100.00;101507.31;2082687;28;20200;-69
2023/04/23 00:26:24;;;;;;;9.40;5.87;;;;;;;10.78;100.00;101511.69;2083018;28;20314;-69
2023/04/23 00:27:25;;;;;;;10.03;5.90;;;;;;;10.56;100.00;101490.13;2083308;28;20203;-69
2023/04/23 00:28:25;;;;;;;7.70;6.20;;;;;;;10.79;100.00;101510.47;2083080;28;20254;-69
2023/04/23 00:29:25;;;;;;;7.37;5.80;;;;;;;10.76;100.00;101504.97;2083182;28;20180;-69
2023/04/23 00:30:26;;;;;;;6.50;5.63;;;;;;;10.77;100.00;101510.06;2082755;28;20263;-69
2023/04/23 00:31:26;;;;;;;7.63;6.00;;;;;;;10.77;100.00;101510.06;2083212;28;20274;-69
2023/04/23 00:32:27;;;;;;;9.57;5.80;;;;;;;10.72;100.00;101507.75;2082863;28;20294;-69
2023/04/23 00:33:27;;;;;;;7.70;5.90;;;;;;;10.74;100.00;101508.16;2083235;28;20250;-69
2023/04/23 00:34:28;;;;;;;10.20;5.63;;;;;;;10.76;100.00;101510.50;2083090;28;20568;-69
2023/04/23 00:35:28;;;;;;;8.00;5.50;;;;;;;10.78;100.00;101514.44;2082608;28;20199;-69
2023/04/23 00:36:29;;;;;;;6.47;5.50;;;;;;;10.42;100.00;101454.22;2083026;28;20188;-69
2023/04/23 00:37:29;;;;;;;8.80;5.53;;;;;;;10.78;100.00;101506.13;2083090;28;20616;-69
2023/04/23 00:38:30;;;;;;;9.60;5.67;;;;;;;10.78;100.00;101513.66;2083201;28;20242;-69
2023/04/23 00:39:30;;;;;;;8.60;5.43;;;;;;;10.75;100.00;101504.16;2082892;28;20196;-69
2023/04/23 00:40:30;;;;;;;9.87;5.87;;;;;;;10.72;100.00;101507.75;2082497;28;20264;-69
2023/04/23 00:41:31;;;;;;;10.27;5.83;;;;;;;10.73;100.00;101512.13;2083131;28;20683;-69
2023/04/23 00:42:31;;;;;;;9.17;5.50;;;;;;;10.73;100.00;101503.81;2082964;28;20192;-69
2023/04/23 00:43:32;;;;;;;7.40;5.50;;;;;;;10.01;100.00;101407.13;2079983;28;20258;-69
2023/04/23 00:44:33;;;;;;;9.37;6.27;;;;;;;10.70;100.00;101510.16;2079138;28;20668;-69
2023/04/23 00:45:33;;;;;;;7.80;6.40;;;;;;;10.71;100.00;101508.19;2089816;28;20191;-69
2023/04/23 00:46:35;;;;;;;9.70;5.93;;;;;;;10.73;100.00;101509.34;2083255;28;20643;-69
2023/04/23 00:47:35;;;;;;;8.53;5.70;;;;;;;10.73;100.00;101512.13;2075116;28;20182;-69
2023/04/23 00:48:37;;;;;;;12.03;6.30;;;;;;;10.74;100.00;101510.13;2075021;28;20587;-69
2023/04/23 00:49:38;;;;;;;7.77;6.20;;;;;;;10.72;100.00;101507.75;2081017;28;20181;-69
2023/04/23 00:50:38;;;;;;;10.30;6.30;;;;;;;10.76;100.00;101507.75;2077638;28;20522;-69
2023/04/23 00:51:39;;;;;;;7.33;5.80;;;;;;;10.81;100.00;101512.84;2078193;28;20540;-69
2023/04/23 00:52:39;;;;;;;8.47;5.53;;;;;;;10.82;100.00;101506.84;2079857;28;20264;-69
2023/04/23 00:53:40;;;;;;;6.67;5.43;;;;;;;10.83;100.00;101514.00;2076294;28;20257;-69
2023/04/23 00:54:40;;;;;;;7.07;5.50;;;;;;;10.87;100.00;101511.19;2082878;28;20177;-69
2023/04/23 00:55:41;;;;;;;8.40;6.20;;;;;;;10.87;100.00;101503.63;2082840;28;20285;-69
2023/04/23 00:56:42;;;;;;;7.47;6.03;;;;;;;10.88;100.00;101509.97;2083202;28;20579;-69
2023/04/23 00:57:42;;;;;;;9.37;5.70;;;;;;;10.88;100.00;101505.22;2082986;28;20188;-69
2023/04/23 00:58:43;;;;;;;11.90;5.80;;;;;;;10.87;100.00;101511.19;2083023;28;20443;-69
2023/04/23 00:59:45;;;;;;;9.93;6.37;;;;;;;10.87;100.00;101505.63;2083074;28;20188;-69
2023/04/23 01:00:47;;;;;;;11.20;6.23;;;;;;;10.87;100.00;101506.41;2079340;28;20910;-69
2023/04/23 01:01:47;;;;;;;11.07;6.33;;;;;;;10.86;100.00;101510.38;2076728;28;20443;-69
2023/04/23 01:02:49;;;;;;;7.67;4.83;;;;;;;10.77;100.00;101492.66;2081893;28;20427;-69
2023/04/23 01:03:51;;;;;;;7.77;5.57;;;;;;;9.95;100.00;101369.19;2081498;28;20187;-69
2023/04/23 01:04:54;;;;;;;7.73;5.40;;;;;;;10.83;100.00;101505.69;2083204;28;20905;-69
2023/04/23 01:05:55;;;;;;;8.60;5.37;;;;;;;10.80;100.00;101508.47;2074660;28;20533;-69
2023/04/23 01:06:56;;;;;;;7.90;5.87;;;;;;;10.76;100.00;101502.97;2081356;28;20858;-69
2023/04/23 01:07:57;;;;;;;9.77;5.30;;;;;;;10.76;100.00;101505.72;2077621;28;20959;-69
2023/04/23 01:08:58;;;;;;;7.60;5.60;;;;;;;10.77;100.00;101506.53;2079117;28;21074;-69
2023/04/23 01:09:59;;;;;;;8.00;5.73;;;;;;;10.77;100.00;101503.75;2079731;28;20203;-69
2023/04/23 01:11:01;;;;;;;7.20;5.57;;;;;;;10.77;100.00;101504.53;2076379;28;20255;-69
2023/04/23 01:12:04;;;;;;;8.70;5.80;;;;;;;10.64;100.00;101486.88;2082553;28;20859;-69
2023/04/23 01:13:05;;;;;;;6.73;5.70;;;;;;;10.72;100.00;101507.75;2082882;28;20929;-69
2023/04/23 01:14:07;;;;;;;6.70;5.67;;;;;;;10.32;100.00;101436.53;2081742;28;20817;-69
2023/04/23 01:15:08;;;;;;;8.93;6.13;;;;;;;10.63;100.00;101503.91;2081105;28;20185;-69
2023/04/23 01:16:10;;;;;;;9.03;5.70;;;;;;;10.60;100.00;101494.41;2081599;28;20936;-69
2023/04/23 01:17:11;;;;;;;8.60;5.70;;;;;;;10.28;100.00;101474.56;2081815;28;20435;-69
2023/04/23 01:18:12;;;;;;;8.37;6.00;;;;;;;10.47;100.00;101498.94;2079028;28;20534;-69
2023/04/23 01:19:14;;;;;;;9.37;5.97;;;;;;;10.50;100.00;101489.78;2076679;28;20243;-69
2023/04/23 01:20:16;;;;;;;8.67;6.00;;;;;;;10.02;100.00;101413.44;2075443;28;20212;-69
2023/04/23 01:21:17;;;;;;;7.67;5.90;;;;;;;9.69;100.00;101362.28;2080078;28;20952;-69
2023/04/23 01:22:17;;;;;;;9.03;5.23;;;;;;;10.59;100.00;101511.47;2073565;28;20444;-69
2023/04/23 01:23:18;;;;;;;9.50;5.57;;;;;;;9.96;100.00;101399.25;2081928;28;20474;-69
2023/04/23 01:24:19;;;;;;;6.90;5.53;;;;;;;10.57;100.00;101494.47;2081649;28;20272;-69
2023/04/23 01:25:19;;;;;;;7.87;5.90;;;;;;;10.51;100.00;101507.19;2081312;28;20554;-69
2023/04/23 01:26:20;;;;;;;7.90;5.60;;;;;;;10.29;100.00;101455.94;2081512;28;20184;-69
2023/04/23 01:27:23;;;;;;;7.40;5.47;;;;;;;10.53;100.00;101497.28;2080855;28;20200;-69
2023/04/23 01:28:24;;;;;;;7.87;5.57;;;;;;;9.42;100.00;101319.84;2080776;28;20431;-69
2023/04/23 01:29:25;;;;;;;9.50;5.80;;;;;;;10.58;100.00;101507.91;2081698;28;20873;-69
2023/04/23 01:30:27;;;;;;;7.00;6.00;;;;;;;10.62;100.00;101500.34;2080923;28;20428;-69
2023/04/23 01:31:28;;;;;;;8.20;5.47;;;;;;;10.63;100.00;101503.91;2081297;28;20236;-69
2023/04/23 01:32:29;;;;;;;11.70;5.90;;;;;;;10.67;100.00;101505.44;2081528;28;20443;-69
2023/04/23 01:33:31;;;;;;;8.47;5.10;;;;;;;10.69;100.00;101505.03;2081705;28;20932;-69
2023/04/23 01:34:32;;;;;;;9.87;5.60;;;;;;;10.70;100.00;101506.59;2081528;28;20466;-69
2023/04/23 01:35:34;;;;;;;7.77;4.97;;;;;;;10.53;100.00;101482.63;2075694;28;20440;-68
2023/04/23 01:36:35;;;;;;;7.93;4.70;;;;;;;10.66;100.00;101505.88;2077986;28;20503;-69
2023/04/23 01:37:37;;;;;;;8.07;5.27;;;;;;;10.09;100.00;101427.25;2078124;28;20443;-69
2023/04/23 01:38:38;;;;;;;7.30;5.37;;;;;;;10.61;100.00;101504.31;2075758;28;20181;-69
2023/04/23 01:39:39;;;;;;;6.97;5.37;;;;;;;10.57;100.00;101513.88;2080225;28;20485;-69
2023/04/23 01:40:39;;;;;;;6.53;5.17;;;;;;;10.48;100.00;101494.94;2073238;28;20170;-69
2023/04/23 01:41:40;;;;;;;8.90;5.07;;;;;;;10.53;100.00;101505.59;2080839;28;20230;-69
2023/04/23 01:42:40;;;;;;;6.63;4.90;;;;;;;10.52;100.00;101508.75;2073506;28;20665;-69
2023/04/23 01:43:42;;;;;;;11.73;4.77;;;;;;;10.55;100.00;101502.41;2079641;28;20193;-69
2023/04/23 01:44:43;;;;;;;6.97;5.30;;;;;;;10.58;100.00;101509.88;2076283;28;20185;-69
2023/04/23 01:45:43;;;;;;;5.47;4.93;;;;;;;10.55;100.00;101497.63;2076910;28;20455;-69
2023/04/23 01:46:44;;;;;;;8.57;5.20;;;;;;;10.57;100.00;101497.25;2081558;28;20220;-69
2023/04/23 01:47:46;;;;;;;7.30;5.20;;;;;;;10.54;100.00;101498.03;2081607;28;20189;-69
2023/04/23 01:48:46;;;;;;;8.53;5.50;;;;;;;10.53;100.00;101500.06;2081340;28;20562;-69
2023/04/23 01:49:47;;;;;;;8.70;5.40;;;;;;;10.53;100.00;101502.81;2081681;28;20424;-68
2023/04/23 01:50:49;;;;;;;7.00;5.60;;;;;;;9.79;100.00;101377.25;2080944;28;20193;-69
2023/04/23 01:51:50;;;;;;;8.00;5.50;;;;;;;10.54;100.00;101498.84;2080996;28;20271;-69
2023/04/23 01:52:50;;;;;;;9.30;5.60;;;;;;;10.53;100.00;101499.25;2081512;28;20508;-69
2023/04/23 01:53:51;;;;;;;6.83;5.53;;;;;;;10.52;100.00;101495.72;2081403;28;20196;-69
2023/04/23 01:54:51;;;;;;;10.27;5.47;;;;;;;10.52;100.00;101506.78;2077777;28;20198;-68
2023/04/23 01:55:54;;;;;;;7.97;5.70;;;;;;;10.54;100.00;101507.16;2075214;28;20185;-69
2023/04/23 01:56:54;;;;;;;8.73;5.77;;;;;;;10.56;100.00;101501.97;2081357;28;20243;-69
2023/04/23 01:57:55;;;;;;;9.07;5.40;;;;;;;10.56;100.00;101499.22;2081264;28;20464;-69
2023/04/23 01:58:55;;;;;;;9.03;5.40;;;;;;;10.19;100.00;101445.75;2081527;28;20181;-69
2023/04/23 02:00:07;;;;;;;13.33;6.13;;;;;;;10.58;100.00;101507.13;2081631;28;20650;-69
2023/04/23 02:01:07;;;;;;;9.97;5.60;;;;;;;10.63;100.00;101506.69;2081015;28;20189;-69
2023/04/23 02:02:12;;;;;;;15.53;5.83;;;;;;;10.67;100.00;101510.97;2081216;28;21008;-69
2023/04/23 02:03:12;;;;;;;16.60;6.27;;;;;;;10.67;100.00;101504.66;2081494;28;20184;-69
2023/04/23 02:04:14;;;;;;;11.60;6.03;;;;;;;10.15;100.00;101429.16;2081157;28;20921;-69
2023/04/23 02:05:17;;;;;;;6.23;5.10;;;;;;;9.99;100.00;101395.66;2080743;28;20646;-69
2023/04/23 02:06:17;;;;;;;8.20;5.47;;;;;;;10.72;100.00;101506.97;2081233;28;20451;-69
2023/04/23 02:07:18;;;;;;;9.00;5.30;;;;;;;10.72;100.00;101504.22;2081417;28;20416;-69
2023/04/23 02:08:18;;;;;;;10.87;5.43;;;;;;;10.54;100.00;101475.88;2081121;28;20176;-68
2023/04/23 02:09:19;;;;;;;10.93;5.83;;;;;;;10.72;100.00;101498.66;2081709;28;20169;-69
2023/04/23 02:10:19;;;;;;;8.70;5.30;;;;;;;9.88;100.00;101375.59;2080560;28;20654;-69
2023/04/23 02:11:20;;;;;;;7.03;5.50;;;;;;;10.68;100.00;101504.25;2081261;28;20633;-69
2023/04/23 02:12:20;;;;;;;7.60;5.10;;;;;;;10.67;100.00;101504.66;2080872;28;20529;-68
2023/04/23 02:13:20;;;;;;;8.13;5.47;;;;;;;10.18;100.00;101442.19;2081294;28;20232;-68
2023/04/23 02:14:21;;;;;;;7.90;5.23;;;;;;;10.60;100.00;101504.75;2081096;28;20201;-69
2023/04/23 02:15:21;;;;;;;12.03;5.80;;;;;;;10.55;100.00;101500.41;2080839;28;20260;-69
2023/04/23 02:16:23;;;;;;;9.83;5.17;;;;;;;10.55;100.00;101507.97;2081097;28;20185;-69
2023/04/23 02:17:23;;;;;;;7.90;5.40;;;;;;;10.53;100.00;101505.59;2081625;28;20269;-69
2023/04/23 02:18:24;;;;;;;8.03;5.00;;;;;;;10.54;100.00;101509.94;2081105;28;20455;-68
2023/04/23 02:19:25;;;;;;;9.37;5.67;;;;;;;10.27;100.00;101461.09;2081371;28;20236;-69
2023/04/23 02:20:25;;;;;;;9.43;6.03;;;;;;;9.82;100.00;101390.25;2080610;28;20196;-69
2023/04/23 02:21:26;;;;;;;12.43;5.90;;;;;;;10.53;100.00;101499.25;2081421;28;20630;-68
2023/04/23 02:22:27;;;;;;;16.20;6.50;;;;;;;10.39;100.00;101480.78;2080866;28;20724;-69
2023/04/23 02:23:27;;;;;;;17.63;6.67;;;;;;;10.50;100.00;101506.41;2081422;28;20178;-69
2023/04/23 02:24:28;;;;;;;17.03;6.93;;;;;;;10.50;100.00;101506.41;2080954;28;20423;-69
2023/04/23 02:25:31;;;;;;;14.90;6.80;;;;;;;10.54;100.00;101501.63;2080267;28;20249;-69
2023/04/23 02:26:31;;;;;;;12.97;6.20;;;;;;;10.60;100.00;101505.50;2080655;28;20197;-69
2023/04/23 02:27:32;;;;;;;18.27;6.23;;;;;;;10.62;100.00;101505.09;2081128;28;20518;-69
2023/04/23 02:28:32;;;;;;;13.13;6.00;;;;;;;10.66;100.00;101508.63;2074804;28;20194;-69
2023/04/23 02:29:35;;;;;;;10.27;5.93;;;;;;;10.60;100.00;101502.75;2078335;28;20223;-69
2023/04/23 02:30:36;;;;;;;10.20;5.63;;;;;;;9.94;100.00;101393.31;2080666;28;20440;-69
2023/04/23 02:31:36;;;;;;;7.17;5.40;;;;;;;10.70;100.00;101498.28;2080690;28;20507;-69
2023/04/23 02:32:38;;;;;;;11.80;5.40;;;;;;;10.68;100.00;101501.47;2081091;28;20189;-69
2023/04/23 02:33:41;;;;;;;7.87;5.73;;;;;;;10.69;100.00;101500.28;2081187;28;20188;-69
2023/04/23 02:34:41;;;;;;;9.63;5.83;;;;;;;10.51;100.00;101471.94;2080759;28;20423;-68
2023/04/23 02:35:42;;;;;;;8.27;5.40;;;;;;;10.04;100.00;101398.00;2080900;28;20424;-68
2023/04/23 02:36:42;;;;;;;9.47;5.47;;;;;;;10.72;100.00;101495.91;2081156;28;20192;-69
2023/04/23 02:37:43;;;;;;;7.93;5.60;;;;;;;10.72;100.00;101498.66;2081126;28;20198;-69
2023/04/23 02:38:44;;;;;;;6.90;5.00;;;;;;;9.75;100.00;101351.59;2080897;28;20590;-69
2023/04/23 02:39:44;;;;;;;7.40;5.40;;;;;;;10.68;100.00;101484.84;2081162;28;20195;-68
2023/04/23 02:40:45;;;;;;;7.50;5.67;;;;;;;10.74;100.00;101499.03;2080474;28;20435;-69
2023/04/23 02:41:45;;;;;;;8.53;6.10;;;;;;;10.74;100.00;101505.38;2080712;28;20188;-68
2023/04/23 02:42:46;;;;;;;8.13;5.03;;;;;;;10.73;100.00;101495.50;2081059;28;20177;-69
2023/04/23 02:43:46;;;;;;;6.57;5.40;;;;;;;10.71;100.00;101505.41;2081334;28;20209;-68
2023/04/23 02:44:46;;;;;;;7.13;5.23;;;;;;;10.73;100.00;101501.03;2081095;28;20630;-69
2023/04/23 02:45:47;;;;;;;7.40;5.40;;;;;;;10.75;100.00;101506.13;2080527;28;20745;-69
2023/04/23 02:46:47;;;;;;;6.80;5.43;;;;;;;10.76;100.00;101507.75;2081050;28;20582;-69
2023/04/23 02:47:48;;;;;;;5.90;5.10;;;;;;;10.44;100.00;101449.06;2081018;28;20721;-69
2023/04/23 02:48:48;;;;;;;7.27;5.80;;;;;;;10.78;100.00;101505.34;2080853;28;20650;-69
2023/04/23 02:49:49;;;;;;;9.27;5.67;;;;;;;10.78;100.00;101497.81;2081153;28;20181;-69
2023/04/23 02:50:49;;;;;;;7.07;5.37;;;;;;;10.47;100.00;101451.00;2080280;28;20200;-69
2023/04/23 02:51:50;;;;;;;6.00;5.40;;;;;;;10.86;100.00;101509.63;2080876;28;20729;-69
2023/04/23 02:52:50;;;;;;;6.60;5.57;;;;;;;10.86;100.00;101509.63;2081017;28;20212;-69
2023/04/23 02:53:51;;;;;;;6.47;5.03;;;;;;;10.36;100.00;101430.94;2080841;28;20193;-69
2023/04/23 02:54:51;;;;;;;5.80;5.00;;;;;;;10.64;100.00;101467.47;2080873;28;20207;-69
2023/04/23 02:55:51;;;;;;;7.57;5.17;;;;;;;10.88;100.00;101501.66;2080405;28;20197;-69
2023/04/23 02:56:52;;;;;;;8.37;5.20;;;;;;;10.13;100.00;101414.13;2080917;28;20343;-69
2023/04/23 02:57:52;;;;;;;8.13;5.40;;;;;;;10.87;100.00;101511.19;2080906;28;20192;-69
2023/04/23 02:58:53;;;;;;;8.67;5.27;;;;;;;10.85;100.00;101513.56;2080082;28;20180;-68
2023/04/23 02:59:53;;;;;;;7.30;5.20;;;;;;;10.82;100.00;101511.63;2080559;28;20181;-69
2023/04/23 03:00:54;;;;;;;11.13;5.50;;;;;;;10.79;100.00;101510.47;2080309;28;20196;-69
2023/04/23 03:01:55;;;;;;;6.33;4.97;;;;;;;10.75;100.00;101506.94;2080717;28;20643;-69
2023/04/23 03:02:55;;;;;;;7.67;5.30;;;;;;;10.75;100.00;101514.47;2080959;28;20907;-69
2023/04/23 03:03:56;;;;;;;5.83;5.23;;;;;;;10.73;100.00;101508.56;2080857;28;20196;-68
2023/04/23 03:04:57;;;;;;;6.93;5.07;;;;;;;10.72;100.00;101506.97;2080824;28;20195;-69
2023/04/23 03:05:59;;;;;;;6.70;5.13;;;;;;;10.64;100.00;101503.50;2080268;28;20475;-69
2023/04/23 03:07:00;;;;;;;8.57;4.97;;;;;;;10.70;100.00;101512.94;2080829;28;20197;-69
2023/04/23 03:08:00;;;;;;;9.57;5.57;;;;;;;10.72;100.00;101506.97;2080801;28;20741;-69
2023/04/23 03:09:00;;;;;;;7.00;5.03;;;;;;;10.71;100.00;101506.19;2080974;28;20760;-69
2023/04/23 03:10:01;;;;;;;9.17;5.10;;;;;;;10.69;100.00;101513.34;2078440;28;20665;-69
2023/04/23 03:11:01;;;;;;;7.70;4.67;;;;;;;10.68;100.00;101509.78;2071330;28;20741;-68
2023/04/23 03:12:02;;;;;;;5.73;4.80;;;;;;;10.68;100.00;101512.56;2076733;28;20202;-69
2023/04/23 03:13:02;;;;;;;9.33;4.90;;;;;;;10.62;100.00;101505.09;2080842;28;20196;-69
2023/04/23 03:14:03;;;;;;;8.27;5.03;;;;;;;10.62;100.00;101507.88;2080740;28;20273;-69
2023/04/23 03:15:04;;;;;;;6.33;4.50;;;;;;;10.62;100.00;101522.53;2080259;28;20188;-69
2023/04/23 03:16:04;;;;;;;5.27;4.77;;;;;;;10.59;100.00;101509.50;2080533;28;20594;-69
2023/04/23 03:17:05;;;;;;;8.07;5.37;;;;;;;10.58;100.00;101515.44;2081006;28;20319;-69
2023/04/23 03:18:07;;;;;;;8.30;5.03;;;;;;;10.56;100.00;101513.06;2080773;28;20607;-69
2023/04/23 03:19:07;;;;;;;9.73;4.93;;;;;;;10.52;100.00;101517.88;2080819;28;20192;-68
2023/04/23 03:20:10;;;;;;;7.67;4.87;;;;;;;10.47;100.00;101517.53;2080581;28;20443;-69
2023/04/23 03:21:10;;;;;;;6.20;4.90;;;;;;;10.49;100.00;101515.13;2080582;28;20189;-69
2023/04/23 03:22:11;;;;;;;7.17;5.00;;;;;;;10.45;100.00;101501.31;2080474;28;20462;-69
2023/04/23 03:23:11;;;;;;;8.23;5.20;;;;;;;10.53;100.00;101513.91;2080814;28;20259;-69
2023/04/23 03:24:13;;;;;;;8.27;4.70;;;;;;;9.99;100.00;101423.34;2080540;28;20180;-69
2023/04/23 03:25:15;;;;;;;7.73;5.30;;;;;;;10.52;100.00;101511.53;2080151;28;20572;-68
2023/04/23 03:26:15;;;;;;;8.07;5.10;;;;;;;10.49;100.00;101515.91;2080860;28;20461;-69
2023/04/23 03:27:16;;;;;;;10.30;5.40;;;;;;;10.49;100.00;101512.34;2081058;28;20461;-68
2023/04/23 03:28:16;;;;;;;9.70;4.90;;;;;;;10.45;100.00;101511.63;2080454;28;20588;-69
2023/04/23 03:29:16;;;;;;;7.20;4.80;;;;;;;10.43;100.00;101505.69;2080897;28;20279;-69
2023/04/23 03:30:17;;;;;;;7.23;4.80;;;;;;;10.40;100.00;101507.28;2076329;28;20184;-69
2023/04/23 03:31:17;;;;;;;5.77;4.60;;;;;;;10.39;100.00;101507.69;2075028;28;20717;-69
2023/04/23 03:32:18;;;;;;;7.87;4.87;;;;;;;10.31;100.00;101509.72;2078906;28;20173;-69
2023/04/23 03:33:18;;;;;;;7.57;5.20;;;;;;;10.27;100.00;101510.97;2072977;28;20177;-68
2023/04/23 03:34:19;;;;;;;8.73;5.50;;;;;;;10.25;100.00;101516.16;2079962;28;20226;-69
2023/04/23 03:35:19;;;;;;;6.73;5.03;;;;;;;10.18;100.00;101505.09;2064002;28;20753;-69
2023/04/23 03:36:20;;;;;;;8.73;4.70;;;;;;;10.18;100.00;101519.75;2078080;28;20189;-69
2023/04/23 03:37:20;;;;;;;10.07;5.40;;;;;;;10.15;100.00;101515.03;2075192;28;20184;-69
2023/04/23 03:38:21;;;;;;;10.13;5.27;;;;;;;10.12;100.00;101515.84;2076177;28;20295;-69
2023/04/23 03:39:21;;;;;;;11.60;5.50;;;;;;;10.04;100.00;101519.84;2077940;28;20196;-68
2023/04/23 03:40:21;;;;;;;11.60;5.83;;;;;;;10.06;100.00;101516.69;2073569;28;20189;-69
2023/04/23 03:41:22;;;;;;;9.90;5.53;;;;;;;10.09;100.00;101518.66;2080143;28;20270;-68
2023/04/23 03:42:22;;;;;;;5.13;4.33;;;;;;;9.92;100.00;101494.59;2072377;28;20200;-69
2023/04/23 03:43:23;;;;;;;6.87;5.03;;;;;;;10.15;100.00;101522.56;2080182;28;20270;-69
2023/04/23 03:44:23;;;;;;;9.33;5.23;;;;;;;10.17;100.00;101520.97;2074116;28;20192;-69
2023/04/23 03:45:24;;;;;;;10.37;5.40;;;;;;;10.20;100.00;101524.88;2077414;28;20272;-69
2023/04/23 03:46:25;;;;;;;5.67;4.77;;;;;;;10.20;100.00;101522.13;2075404;28;20218;-69
2023/04/23 03:47:25;;;;;;;7.73;5.30;;;;;;;10.17;100.00;101528.47;2075199;28;20444;-68
2023/04/23 03:48:26;;;;;;;11.27;5.50;;;;;;;10.16;100.00;101524.13;2080521;28;20184;-69
2023/04/23 03:49:26;;;;;;;8.20;5.13;;;;;;;10.18;100.00;101521.72;2080541;28;20670;-69
2023/04/23 03:50:28;;;;;;;9.10;5.13;;;;;;;10.10;100.00;101523.75;2080147;28;20188;-69
2023/04/23 03:51:28;;;;;;;7.33;5.10;;;;;;;10.02;100.00;101524.19;2080718;28;20579;-69
2023/04/23 03:52:29;;;;;;;7.70;5.10;;;;;;;9.98;100.00;101524.22;2080355;28;20476;-69
2023/04/23 03:53:29;;;;;;;7.30;4.90;;;;;;;9.98;100.00;101515.91;2080867;28;20646;-69
2023/04/23 03:54:30;;;;;;;8.20;5.03;;;;;;;9.96;100.00;101525.81;2080397;28;20658;-69
2023/04/23 03:55:30;;;;;;;7.27;5.07;;;;;;;9.07;100.00;101382.94;2076568;28;20196;-69
2023/04/23 03:56:31;;;;;;;10.27;5.37;;;;;;;9.95;100.00;101529.78;2074712;28;20239;-69
2023/04/23 03:57:31;;;;;;;7.73;5.40;;;;;;;9.87;100.00;101520.75;2079311;28;20180;-69
2023/04/23 03:58:31;;;;;;;9.80;5.43;;;;;;;9.94;100.00;101536.53;2072270;28;20188;-69
2023/04/23 03:59:32;;;;;;;6.93;5.30;;;;;;;9.96;100.00;101532.16;2080835;28;20240;-69
2023/04/23 04:00:32;;;;;;;8.67;5.60;;;;;;;10.03;100.00;101532.09;2072876;28;20261;-68
2023/04/23 04:01:35;;;;;;;8.23;5.57;;;;;;;10.02;100.00;101532.50;2078218;28;20195;-69
2023/04/23 04:02:35;;;;;;;9.93;5.13;;;;;;;10.03;100.00;101525.75;2075448;28;20192;-69
2023/04/23 04:03:35;;;;;;;9.67;5.17;;;;;;;10.02;100.00;101538.03;2077305;28;20288;-69
2023/04/23 04:04:36;;;;;;;9.80;4.63;;;;;;;9.96;100.00;101534.94;2080387;28;20191;-69
2023/04/23 04:05:36;;;;;;;8.37;5.03;;;;;;;9.94;100.00;101537.31;2079803;28;20240;-69
2023/04/23 04:06:37;;;;;;;6.73;5.47;;;;;;;9.85;100.00;101536.19;2079758;28;20187;-69
2023/04/23 04:07:38;;;;;;;6.80;5.67;;;;;;;9.83;100.00;101531.06;2080141;28;20755;-69
2023/04/23 04:08:38;;;;;;;7.83;5.77;;;;;;;9.81;100.00;101536.22;2080282;28;20666;-69
2023/04/23 04:09:39;;;;;;;6.53;5.20;;;;;;;9.78;100.00;101541.78;2079967;28;20284;-69
2023/04/23 04:10:39;;;;;;;8.83;5.40;;;;;;;9.79;100.00;101541.34;2079283;28;20191;-69
2023/04/23 04:11:40;;;;;;;7.60;5.53;;;;;;;9.78;100.00;101541.78;2077878;28;20295;-69
2023/04/23 04:12:41;;;;;;;6.77;5.77;;;;;;;9.80;100.00;101539.38;2076947;28;20189;-69
2023/04/23 04:13:41;;;;;;;6.93;5.40;;;;;;;9.78;100.00;101541.78;2078287;28;20266;-69
2023/04/23 04:14:42;;;;;;;9.17;5.50;;;;;;;9.69;100.00;101542.19;2073126;28;20611;-69
2023/04/23 04:15:42;;;;;;;10.53;6.13;;;;;;;9.64;100.00;101544.63;2080301;28;20325;-69
2023/04/23 04:16:43;;;;;;;11.20;6.07;;;;;;;9.45;100.00;101520.19;2080412;28;20214;-69
2023/04/23 04:17:44;;;;;;;9.40;6.03;;;;;;;9.67;100.00;101550.13;2080547;28;20190;-69
2023/04/23 04:18:45;;;;;;;8.57;6.15;;;;;;;9.73;100.00;101547.75;2080294;28;20192;-69
2023/04/23 04:19:45;;;;;;;8.13;5.80;;;;;;;9.74;100.00;101546.53;2080435;28;20249;-69
2023/04/23 04:20:45;;;;;;;9.43;6.20;;;;;;;9.26;100.00;101471.69;2079937;28;20202;-69
2023/04/23 04:21:46;;;;;;;10.07;5.67;;;;;;;9.80;100.00;101548.50;2080250;28;20238;-69
2023/04/23 04:22:47;;;;;;;9.77;5.83;;;;;;;9.82;100.00;101543.31;2080403;28;20191;-69
2023/04/23 04:23:47;;;;;;;11.20;6.40;;;;;;;9.83;100.00;101552.41;2080493;28;20191;-69
2023/04/23 04:24:50;;;;;;;8.93;6.07;;;;;;;9.72;100.00;101549.72;2080651;28;20191;-69
2023/04/23 04:25:55;;;;;;;7.63;6.07;;;;;;;9.63;100.00;101548.59;2079779;28;20649;-69
2023/04/23 04:26:55;;;;;;;9.35;6.28;;;;;;;9.64;100.00;101558.47;2080214;28;20206;-69
2023/04/23 04:27:56;;;;;;;8.10;6.10;;;;;;;9.64;100.00;101559.22;2080499;28;20203;-69
2023/04/23 04:29:00;;;;;;;7.40;5.90;;;;;;;9.33;100.00;101504.06;2080338;28;20276;-69
2023/04/23 04:30:01;;;;;;;8.57;6.20;;;;;;;9.71;100.00;101561.19;2080493;28;20281;-69
2023/04/23 04:31:04;;;;;;;10.13;6.22;;;;;;;9.77;100.00;101565.09;2079752;28;20458;-69
2023/04/23 04:32:04;;;;;;;6.97;6.00;;;;;;;9.65;100.00;101533.16;2080070;28;20183;-69
2023/04/23 04:33:05;;;;;;;9.60;6.00;;;;;;;9.87;100.00;101561.47;2080258;28;20185;-68
2023/04/23 04:34:07;;;;;;;9.87;5.87;;;;;;;9.89;100.00;101562.66;2080261;28;20187;-69
2023/04/23 04:35:08;;;;;;;9.27;6.20;;;;;;;9.90;100.00;101569.00;2079941;28;20571;-69
2023/04/23 04:36:08;;;;;;;6.30;5.70;;;;;;;9.82;100.00;101548.84;2080527;28;20507;-69
2023/04/23 04:37:10;;;;;;;6.30;5.70;;;;;;;9.73;100.00;101533.91;2080404;28;20184;-69
2023/04/23 04:38:11;;;;;;;6.40;5.67;;;;;;;9.46;100.00;101483.03;2080366;28;20194;-69
2023/04/23 04:39:13;;;;;;;7.87;6.10;;;;;;;10.04;100.00;101566.94;2080503;28;21048;-68
2023/04/23 04:40:14;;;;;;;8.70;6.27;;;;;;;10.10;100.00;101570.06;2079819;28;20198;-68